sensor_id;sensor_type;location;lat;lon;timestamp;P1;durP1;ratioP1;P2;durP2;ratioP2
14611;SDS011;7392;52.078;11.650;2022-12-16T00:01:22;14.10;;;9.60;;
14611;SDS011;7392;52.078;11.650;2022-12-16T00:03:51;13.93;;;8.77;;
14611;SDS011;7392;52.078;11.650;2022-12-16T00:06:21;13.93;;;8.83;;
14611;SDS011;7392;52.078;11.650;2022-12-16T00:08:51;17.33;;;10.30;;
14611;SDS011;7392;52.078;11.650;2022-12-16T00:11:20;16.47;;;10.20;;
14611;SDS011;7392;52.078;11.650;2022-12-16T00:13:48;15.70;;;9.50;;
14611;SDS011;7392;52.078;11.650;2022-12-16T00:16:18;16.60;;;9.77;;
14611;SDS011;7392;52.078;11.650;2022-12-16T00:18:47;14.13;;;8.60;;
14611;SDS011;7392;52.078;11.650;2022-12-16T00:21:18;14.20;;;9.73;;
14611;SDS011;7392;52.078;11.650;2022-12-16T00:23:47;18.03;;;11.17;;
14611;SDS011;7392;52.078;11.650;2022-12-16T00:26:15;18.10;;;10.40;;
14611;SDS011;7392;52.078;11.650;2022-12-16T00:28:42;17.57;;;10.53;;
14611;SDS011;7392;52.078;11.650;2022-12-16T00:31:10;20.53;;;12.30;;
14611;SDS011;7392;52.078;11.650;2022-12-16T00:33:38;19.13;;;11.77;;
14611;SDS011;7392;52.078;11.650;2022-12-16T00:36:06;17.57;;;10.07;;
14611;SDS011;7392;52.078;11.650;2022-12-16T00:38:36;13.93;;;9.63;;
14611;SDS011;7392;52.078;11.650;2022-12-16T00:41:04;16.13;;;10.03;;
14611;SDS011;7392;52.078;11.650;2022-12-16T00:43:33;14.83;;;9.27;;
14611;SDS011;7392;52.078;11.650;2022-12-16T00:46:01;13.50;;;8.20;;
14611;SDS011;7392;52.078;11.650;2022-12-16T00:48:29;12.80;;;8.20;;
14611;SDS011;7392;52.078;11.650;2022-12-16T00:50:57;16.37;;;9.90;;
14611;SDS011;7392;52.078;11.650;2022-12-16T00:53:25;16.93;;;9.50;;
14611;SDS011;7392;52.078;11.650;2022-12-16T00:56:01;13.20;;;8.57;;
14611;SDS011;7392;52.078;11.650;2022-12-16T00:58:33;14.70;;;8.60;;
14611;SDS011;7392;52.078;11.650;2022-12-16T01:01:02;14.43;;;8.83;;
14611;SDS011;7392;52.078;11.650;2022-12-16T01:03:31;12.83;;;8.13;;
14611;SDS011;7392;52.078;11.650;2022-12-16T01:05:59;12.10;;;6.87;;
14611;SDS011;7392;52.078;11.650;2022-12-16T01:08:27;11.17;;;7.37;;
14611;SDS011;7392;52.078;11.650;2022-12-16T01:10:55;10.13;;;6.37;;
14611;SDS011;7392;52.078;11.650;2022-12-16T01:13:25;12.63;;;7.53;;
14611;SDS011;7392;52.078;11.650;2022-12-16T01:15:53;12.30;;;7.60;;
14611;SDS011;7392;52.078;11.650;2022-12-16T01:18:20;12.80;;;7.57;;
14611;SDS011;7392;52.078;11.650;2022-12-16T01:20:48;11.97;;;7.27;;
14611;SDS011;7392;52.078;11.650;2022-12-16T01:23:17;11.73;;;6.90;;
14611;SDS011;7392;52.078;11.650;2022-12-16T01:25:44;13.90;;;8.67;;
14611;SDS011;7392;52.078;11.650;2022-12-16T01:28:17;16.27;;;10.57;;
14611;SDS011;7392;52.078;11.650;2022-12-16T01:30:46;19.80;;;11.67;;
14611;SDS011;7392;52.078;11.650;2022-12-16T01:33:14;15.57;;;10.47;;
14611;SDS011;7392;52.078;11.650;2022-12-16T01:35:43;18.13;;;10.80;;
14611;SDS011;7392;52.078;11.650;2022-12-16T01:38:21;16.07;;;10.07;;
14611;SDS011;7392;52.078;11.650;2022-12-16T01:40:49;14.97;;;9.13;;
14611;SDS011;7392;52.078;11.650;2022-12-16T01:43:17;13.17;;;8.90;;
14611;SDS011;7392;52.078;11.650;2022-12-16T01:45:49;17.07;;;10.00;;
14611;SDS011;7392;52.078;11.650;2022-12-16T01:48:19;13.73;;;8.97;;
14611;SDS011;7392;52.078;11.650;2022-12-16T01:50:53;13.27;;;8.07;;
14611;SDS011;7392;52.078;11.650;2022-12-16T01:53:26;12.07;;;7.70;;
14611;SDS011;7392;52.078;11.650;2022-12-16T01:55:55;11.93;;;7.57;;
14611;SDS011;7392;52.078;11.650;2022-12-16T01:58:25;11.47;;;7.37;;
14611;SDS011;7392;52.078;11.650;2022-12-16T02:00:57;11.53;;;7.20;;
14611;SDS011;7392;52.078;11.650;2022-12-16T02:03:26;15.43;;;9.53;;
14611;SDS011;7392;52.078;11.650;2022-12-16T02:05:57;16.10;;;11.40;;
14611;SDS011;7392;52.078;11.650;2022-12-16T02:08:27;16.30;;;10.37;;
14611;SDS011;7392;52.078;11.650;2022-12-16T02:11:06;16.10;;;11.13;;
14611;SDS011;7392;52.078;11.650;2022-12-16T02:13:48;18.63;;;10.47;;
14611;SDS011;7392;52.078;11.650;2022-12-16T02:16:31;16.97;;;9.63;;
14611;SDS011;7392;52.078;11.650;2022-12-16T02:19:08;12.70;;;8.37;;
14611;SDS011;7392;52.078;11.650;2022-12-16T02:21:51;13.30;;;8.13;;
14611;SDS011;7392;52.078;11.650;2022-12-16T02:24:38;13.37;;;8.27;;
14611;SDS011;7392;52.078;11.650;2022-12-16T02:27:29;12.60;;;7.63;;
14611;SDS011;7392;52.078;11.650;2022-12-16T02:33:09;10.70;;;6.90;;
14611;SDS011;7392;52.078;11.650;2022-12-16T02:35:49;15.90;;;9.63;;
14611;SDS011;7392;52.078;11.650;2022-12-16T02:38:23;15.97;;;9.57;;
14611;SDS011;7392;52.078;11.650;2022-12-16T02:41:00;15.77;;;10.17;;
14611;SDS011;7392;52.078;11.650;2022-12-16T02:43:38;18.10;;;10.83;;
14611;SDS011;7392;52.078;11.650;2022-12-16T02:46:19;15.87;;;9.93;;
14611;SDS011;7392;52.078;11.650;2022-12-16T02:48:50;13.60;;;8.87;;
14611;SDS011;7392;52.078;11.650;2022-12-16T02:51:19;14.20;;;8.47;;
14611;SDS011;7392;52.078;11.650;2022-12-16T02:53:49;14.67;;;9.43;;
14611;SDS011;7392;52.078;11.650;2022-12-16T02:56:30;17.33;;;9.77;;
14611;SDS011;7392;52.078;11.650;2022-12-16T02:59:10;13.43;;;8.30;;
14611;SDS011;7392;52.078;11.650;2022-12-16T03:01:51;12.73;;;8.10;;
14611;SDS011;7392;52.078;11.650;2022-12-16T03:04:25;12.93;;;8.10;;
14611;SDS011;7392;52.078;11.650;2022-12-16T03:06:58;10.73;;;7.40;;
14611;SDS011;7392;52.078;11.650;2022-12-16T03:09:28;10.67;;;7.17;;
14611;SDS011;7392;52.078;11.650;2022-12-16T03:12:00;12.90;;;7.27;;
14611;SDS011;7392;52.078;11.650;2022-12-16T03:14:33;12.50;;;7.63;;
14611;SDS011;7392;52.078;11.650;2022-12-16T03:17:06;10.83;;;6.43;;
14611;SDS011;7392;52.078;11.650;2022-12-16T03:19:35;10.90;;;6.83;;
14611;SDS011;7392;52.078;11.650;2022-12-16T03:22:08;9.30;;;6.30;;
14611;SDS011;7392;52.078;11.650;2022-12-16T03:24:39;11.50;;;6.77;;
14611;SDS011;7392;52.078;11.650;2022-12-16T03:27:09;10.47;;;6.27;;
14611;SDS011;7392;52.078;11.650;2022-12-16T03:29:44;10.17;;;5.93;;
14611;SDS011;7392;52.078;11.650;2022-12-16T03:32:20;9.00;;;5.57;;
14611;SDS011;7392;52.078;11.650;2022-12-16T03:34:54;8.07;;;5.67;;
14611;SDS011;7392;52.078;11.650;2022-12-16T03:37:26;10.93;;;7.07;;
14611;SDS011;7392;52.078;11.650;2022-12-16T03:39:59;9.37;;;6.33;;
14611;SDS011;7392;52.078;11.650;2022-12-16T03:42:29;11.50;;;8.10;;
14611;SDS011;7392;52.078;11.650;2022-12-16T03:44:58;10.70;;;7.50;;
14611;SDS011;7392;52.078;11.650;2022-12-16T03:47:27;14.47;;;10.03;;
14611;SDS011;7392;52.078;11.650;2022-12-16T03:49:55;13.63;;;9.07;;
14611;SDS011;7392;52.078;11.650;2022-12-16T03:52:23;13.43;;;8.63;;
14611;SDS011;7392;52.078;11.650;2022-12-16T03:54:51;13.20;;;7.73;;
14611;SDS011;7392;52.078;11.650;2022-12-16T03:57:19;13.13;;;8.53;;
14611;SDS011;7392;52.078;11.650;2022-12-16T03:59:47;17.97;;;9.07;;
14611;SDS011;7392;52.078;11.650;2022-12-16T04:02:15;13.03;;;8.03;;
14611;SDS011;7392;52.078;11.650;2022-12-16T04:04:44;11.37;;;7.30;;
14611;SDS011;7392;52.078;11.650;2022-12-16T04:07:12;11.43;;;7.13;;
14611;SDS011;7392;52.078;11.650;2022-12-16T04:09:47;11.03;;;6.97;;
14611;SDS011;7392;52.078;11.650;2022-12-16T04:12:15;12.50;;;7.60;;
14611;SDS011;7392;52.078;11.650;2022-12-16T04:15:00;17.40;;;9.67;;
14611;SDS011;7392;52.078;11.650;2022-12-16T04:17:45;19.20;;;11.37;;
14611;SDS011;7392;52.078;11.650;2022-12-16T04:20:32;20.40;;;11.90;;
14611;SDS011;7392;52.078;11.650;2022-12-16T04:23:20;18.03;;;11.13;;
14611;SDS011;7392;52.078;11.650;2022-12-16T04:26:08;16.97;;;10.07;;
14611;SDS011;7392;52.078;11.650;2022-12-16T04:28:36;15.03;;;9.33;;
14611;SDS011;7392;52.078;11.650;2022-12-16T04:31:04;14.07;;;8.20;;
14611;SDS011;7392;52.078;11.650;2022-12-16T04:33:33;12.77;;;8.40;;
14611;SDS011;7392;52.078;11.650;2022-12-16T04:36:19;12.97;;;7.57;;
14611;SDS011;7392;52.078;11.650;2022-12-16T04:39:04;17.43;;;10.60;;
14611;SDS011;7392;52.078;11.650;2022-12-16T04:41:50;14.77;;;10.03;;
14611;SDS011;7392;52.078;11.650;2022-12-16T04:44:36;14.63;;;8.60;;
14611;SDS011;7392;52.078;11.650;2022-12-16T04:47:22;11.80;;;7.70;;
14611;SDS011;7392;52.078;11.650;2022-12-16T04:50:08;10.37;;;6.93;;
14611;SDS011;7392;52.078;11.650;2022-12-16T04:52:55;11.43;;;6.93;;
14611;SDS011;7392;52.078;11.650;2022-12-16T04:55:40;10.47;;;7.83;;
14611;SDS011;7392;52.078;11.650;2022-12-16T04:58:29;10.97;;;6.77;;
14611;SDS011;7392;52.078;11.650;2022-12-16T05:01:26;13.13;;;7.73;;
14611;SDS011;7392;52.078;11.650;2022-12-16T05:04:11;12.27;;;7.03;;
14611;SDS011;7392;52.078;11.650;2022-12-16T05:06:56;10.23;;;6.87;;
14611;SDS011;7392;52.078;11.650;2022-12-16T05:09:43;9.83;;;6.60;;
14611;SDS011;7392;52.078;11.650;2022-12-16T05:12:29;10.33;;;6.10;;
14611;SDS011;7392;52.078;11.650;2022-12-16T05:15:14;9.57;;;6.00;;
14611;SDS011;7392;52.078;11.650;2022-12-16T05:18:06;8.87;;;6.03;;
14611;SDS011;7392;52.078;11.650;2022-12-16T05:20:52;10.13;;;6.87;;
14611;SDS011;7392;52.078;11.650;2022-12-16T05:23:37;10.60;;;7.03;;
14611;SDS011;7392;52.078;11.650;2022-12-16T05:26:24;16.93;;;10.80;;
14611;SDS011;7392;52.078;11.650;2022-12-16T05:29:09;11.63;;;7.93;;
14611;SDS011;7392;52.078;11.650;2022-12-16T05:31:55;13.57;;;7.77;;
14611;SDS011;7392;52.078;11.650;2022-12-16T05:34:40;13.00;;;8.07;;
14611;SDS011;7392;52.078;11.650;2022-12-16T05:37:25;11.17;;;6.93;;
14611;SDS011;7392;52.078;11.650;2022-12-16T05:40:11;13.60;;;8.57;;
14611;SDS011;7392;52.078;11.650;2022-12-16T05:42:57;14.70;;;8.50;;
14611;SDS011;7392;52.078;11.650;2022-12-16T05:45:43;16.57;;;8.90;;
14611;SDS011;7392;52.078;11.650;2022-12-16T05:48:28;16.37;;;10.37;;
14611;SDS011;7392;52.078;11.650;2022-12-16T05:51:13;16.30;;;9.77;;
14611;SDS011;7392;52.078;11.650;2022-12-16T05:53:59;19.03;;;10.73;;
14611;SDS011;7392;52.078;11.650;2022-12-16T05:56:44;16.13;;;10.47;;
14611;SDS011;7392;52.078;11.650;2022-12-16T05:59:30;16.00;;;10.30;;
14611;SDS011;7392;52.078;11.650;2022-12-16T06:02:16;18.13;;;10.27;;
14611;SDS011;7392;52.078;11.650;2022-12-16T06:05:01;14.53;;;8.73;;
14611;SDS011;7392;52.078;11.650;2022-12-16T06:07:49;14.70;;;9.10;;
14611;SDS011;7392;52.078;11.650;2022-12-16T06:10:35;13.97;;;8.37;;
14611;SDS011;7392;52.078;11.650;2022-12-16T06:13:20;13.83;;;8.23;;
14611;SDS011;7392;52.078;11.650;2022-12-16T06:16:07;17.33;;;10.03;;
14611;SDS011;7392;52.078;11.650;2022-12-16T06:19:07;13.70;;;8.93;;
14611;SDS011;7392;52.078;11.650;2022-12-16T06:21:53;13.63;;;8.67;;
14611;SDS011;7392;52.078;11.650;2022-12-16T06:24:38;15.20;;;8.70;;
14611;SDS011;7392;52.078;11.650;2022-12-16T06:27:23;13.60;;;8.00;;
14611;SDS011;7392;52.078;11.650;2022-12-16T06:30:09;10.73;;;6.50;;
14611;SDS011;7392;52.078;11.650;2022-12-16T06:32:56;11.77;;;7.47;;
14611;SDS011;7392;52.078;11.650;2022-12-16T06:35:41;10.93;;;6.83;;
14611;SDS011;7392;52.078;11.650;2022-12-16T06:38:27;11.83;;;7.00;;
14611;SDS011;7392;52.078;11.650;2022-12-16T06:41:12;14.93;;;8.30;;
14611;SDS011;7392;52.078;11.650;2022-12-16T06:44:03;16.30;;;9.03;;
14611;SDS011;7392;52.078;11.650;2022-12-16T06:46:48;15.40;;;8.57;;
14611;SDS011;7392;52.078;11.650;2022-12-16T06:49:35;14.03;;;8.80;;
14611;SDS011;7392;52.078;11.650;2022-12-16T06:52:20;13.40;;;8.80;;
14611;SDS011;7392;52.078;11.650;2022-12-16T06:55:05;13.33;;;8.10;;
14611;SDS011;7392;52.078;11.650;2022-12-16T06:57:55;12.90;;;8.07;;
14611;SDS011;7392;52.078;11.650;2022-12-16T07:00:40;11.50;;;7.27;;
14611;SDS011;7392;52.078;11.650;2022-12-16T07:03:26;11.40;;;7.00;;
14611;SDS011;7392;52.078;11.650;2022-12-16T07:06:13;11.43;;;6.67;;
14611;SDS011;7392;52.078;11.650;2022-12-16T07:08:58;9.37;;;7.03;;
14611;SDS011;7392;52.078;11.650;2022-12-16T07:11:43;11.90;;;6.90;;
14611;SDS011;7392;52.078;11.650;2022-12-16T07:14:28;10.27;;;7.10;;
14611;SDS011;7392;52.078;11.650;2022-12-16T07:17:14;9.63;;;6.37;;
14611;SDS011;7392;52.078;11.650;2022-12-16T07:19:59;9.70;;;5.73;;
14611;SDS011;7392;52.078;11.650;2022-12-16T07:22:46;8.30;;;5.67;;
14611;SDS011;7392;52.078;11.650;2022-12-16T07:25:38;10.30;;;6.23;;
14611;SDS011;7392;52.078;11.650;2022-12-16T07:28:24;9.13;;;6.07;;
14611;SDS011;7392;52.078;11.650;2022-12-16T07:31:09;8.87;;;5.70;;
14611;SDS011;7392;52.078;11.650;2022-12-16T07:33:54;10.57;;;6.20;;
14611;SDS011;7392;52.078;11.650;2022-12-16T07:36:39;12.37;;;7.00;;
14611;SDS011;7392;52.078;11.650;2022-12-16T07:39:26;15.90;;;9.30;;
14611;SDS011;7392;52.078;11.650;2022-12-16T07:42:19;13.70;;;8.10;;
14611;SDS011;7392;52.078;11.650;2022-12-16T07:45:05;17.83;;;10.80;;
14611;SDS011;7392;52.078;11.650;2022-12-16T07:47:51;15.97;;;10.40;;
14611;SDS011;7392;52.078;11.650;2022-12-16T07:50:37;17.70;;;10.57;;
14611;SDS011;7392;52.078;11.650;2022-12-16T07:53:23;13.90;;;9.07;;
14611;SDS011;7392;52.078;11.650;2022-12-16T07:56:10;15.70;;;9.77;;
14611;SDS011;7392;52.078;11.650;2022-12-16T07:58:56;17.13;;;9.67;;
14611;SDS011;7392;52.078;11.650;2022-12-16T08:01:42;12.53;;;8.27;;
14611;SDS011;7392;52.078;11.650;2022-12-16T08:04:27;12.97;;;8.60;;
14611;SDS011;7392;52.078;11.650;2022-12-16T08:07:13;14.53;;;9.63;;
14611;SDS011;7392;52.078;11.650;2022-12-16T08:09:58;17.23;;;10.23;;
14611;SDS011;7392;52.078;11.650;2022-12-16T08:12:44;18.10;;;11.67;;
14611;SDS011;7392;52.078;11.650;2022-12-16T08:15:30;21.63;;;12.47;;
14611;SDS011;7392;52.078;11.650;2022-12-16T08:18:15;22.07;;;13.73;;
14611;SDS011;7392;52.078;11.650;2022-12-16T08:21:00;23.50;;;14.20;;
14611;SDS011;7392;52.078;11.650;2022-12-16T08:23:46;23.13;;;13.87;;
14611;SDS011;7392;52.078;11.650;2022-12-16T08:26:31;26.43;;;15.17;;
14611;SDS011;7392;52.078;11.650;2022-12-16T08:29:18;25.00;;;14.37;;
14611;SDS011;7392;52.078;11.650;2022-12-16T08:32:11;28.60;;;15.97;;
14611;SDS011;7392;52.078;11.650;2022-12-16T08:34:56;25.93;;;16.30;;
14611;SDS011;7392;52.078;11.650;2022-12-16T08:37:42;23.73;;;14.80;;
14611;SDS011;7392;52.078;11.650;2022-12-16T08:40:27;26.73;;;17.20;;
14611;SDS011;7392;52.078;11.650;2022-12-16T08:43:23;26.13;;;15.87;;
14611;SDS011;7392;52.078;11.650;2022-12-16T08:46:10;22.30;;;14.37;;
14611;SDS011;7392;52.078;11.650;2022-12-16T08:48:56;22.43;;;14.40;;
14611;SDS011;7392;52.078;11.650;2022-12-16T08:51:46;22.87;;;13.40;;
14611;SDS011;7392;52.078;11.650;2022-12-16T08:54:31;23.27;;;13.23;;
14611;SDS011;7392;52.078;11.650;2022-12-16T08:57:16;19.23;;;11.93;;
14611;SDS011;7392;52.078;11.650;2022-12-16T09:00:03;20.53;;;12.20;;
14611;SDS011;7392;52.078;11.650;2022-12-16T09:02:53;16.93;;;10.67;;
14611;SDS011;7392;52.078;11.650;2022-12-16T09:05:39;19.20;;;11.70;;
14611;SDS011;7392;52.078;11.650;2022-12-16T09:08:25;18.03;;;10.93;;
14611;SDS011;7392;52.078;11.650;2022-12-16T09:11:10;17.87;;;12.20;;
14611;SDS011;7392;52.078;11.650;2022-12-16T09:13:55;19.00;;;12.50;;
14611;SDS011;7392;52.078;11.650;2022-12-16T09:16:40;18.87;;;12.23;;
14611;SDS011;7392;52.078;11.650;2022-12-16T09:19:26;19.80;;;11.83;;
14611;SDS011;7392;52.078;11.650;2022-12-16T09:22:12;19.60;;;12.20;;
14611;SDS011;7392;52.078;11.650;2022-12-16T09:24:57;22.10;;;13.93;;
14611;SDS011;7392;52.078;11.650;2022-12-16T09:27:42;21.97;;;12.13;;
14611;SDS011;7392;52.078;11.650;2022-12-16T09:30:27;19.60;;;12.13;;
14611;SDS011;7392;52.078;11.650;2022-12-16T09:33:12;20.07;;;13.20;;
14611;SDS011;7392;52.078;11.650;2022-12-16T09:35:59;21.73;;;13.23;;
14611;SDS011;7392;52.078;11.650;2022-12-16T09:38:44;20.33;;;12.87;;
14611;SDS011;7392;52.078;11.650;2022-12-16T09:41:34;19.47;;;12.67;;
14611;SDS011;7392;52.078;11.650;2022-12-16T09:44:29;19.43;;;11.80;;
14611;SDS011;7392;52.078;11.650;2022-12-16T09:47:25;17.57;;;11.53;;
14611;SDS011;7392;52.078;11.650;2022-12-16T09:50:20;18.03;;;11.93;;
14611;SDS011;7392;52.078;11.650;2022-12-16T09:53:11;16.83;;;10.77;;
14611;SDS011;7392;52.078;11.650;2022-12-16T09:55:59;16.90;;;11.63;;
14611;SDS011;7392;52.078;11.650;2022-12-16T09:58:48;18.17;;;12.70;;
14611;SDS011;7392;52.078;11.650;2022-12-16T10:01:38;18.87;;;12.60;;
14611;SDS011;7392;52.078;11.650;2022-12-16T10:04:24;21.57;;;13.87;;
14611;SDS011;7392;52.078;11.650;2022-12-16T10:07:11;28.27;;;18.17;;
14611;SDS011;7392;52.078;11.650;2022-12-16T10:10:06;26.50;;;17.60;;
14611;SDS011;7392;52.078;11.650;2022-12-16T10:13:02;24.57;;;15.27;;
14611;SDS011;7392;52.078;11.650;2022-12-16T10:15:54;21.67;;;13.90;;
14611;SDS011;7392;52.078;11.650;2022-12-16T10:18:49;20.23;;;14.00;;
14611;SDS011;7392;52.078;11.650;2022-12-16T10:21:49;25.03;;;17.10;;
14611;SDS011;7392;52.078;11.650;2022-12-16T10:24:44;23.40;;;14.23;;
14611;SDS011;7392;52.078;11.650;2022-12-16T10:27:40;27.17;;;18.23;;
14611;SDS011;7392;52.078;11.650;2022-12-16T10:30:28;25.37;;;17.80;;
14611;SDS011;7392;52.078;11.650;2022-12-16T10:33:14;21.93;;;15.37;;
14611;SDS011;7392;52.078;11.650;2022-12-16T10:36:01;24.53;;;15.50;;
14611;SDS011;7392;52.078;11.650;2022-12-16T10:38:48;19.87;;;13.63;;
14611;SDS011;7392;52.078;11.650;2022-12-16T10:41:38;18.80;;;13.03;;
14611;SDS011;7392;52.078;11.650;2022-12-16T10:44:28;19.20;;;13.00;;
14611;SDS011;7392;52.078;11.650;2022-12-16T10:47:20;17.20;;;11.97;;
14611;SDS011;7392;52.078;11.650;2022-12-16T10:50:10;15.17;;;11.00;;
14611;SDS011;7392;52.078;11.650;2022-12-16T10:52:58;18.80;;;12.63;;
14611;SDS011;7392;52.078;11.650;2022-12-16T10:55:48;16.93;;;12.07;;
14611;SDS011;7392;52.078;11.650;2022-12-16T10:58:44;16.47;;;11.40;;
14611;SDS011;7392;52.078;11.650;2022-12-16T11:01:37;14.37;;;10.37;;
14611;SDS011;7392;52.078;11.650;2022-12-16T11:04:27;15.40;;;10.23;;
14611;SDS011;7392;52.078;11.650;2022-12-16T11:07:24;26.50;;;17.17;;
14611;SDS011;7392;52.078;11.650;2022-12-16T11:10:25;19.87;;;12.43;;
14611;SDS011;7392;52.078;11.650;2022-12-16T11:13:17;22.03;;;14.80;;
14611;SDS011;7392;52.078;11.650;2022-12-16T11:16:08;16.07;;;12.43;;
14611;SDS011;7392;52.078;11.650;2022-12-16T11:18:57;17.73;;;12.37;;
14611;SDS011;7392;52.078;11.650;2022-12-16T11:21:43;16.40;;;11.80;;
14611;SDS011;7392;52.078;11.650;2022-12-16T11:24:29;14.07;;;10.53;;
14611;SDS011;7392;52.078;11.650;2022-12-16T11:27:20;15.33;;;10.60;;
14611;SDS011;7392;52.078;11.650;2022-12-16T11:30:15;12.90;;;9.90;;
14611;SDS011;7392;52.078;11.650;2022-12-16T11:33:05;12.00;;;8.27;;
14611;SDS011;7392;52.078;11.650;2022-12-16T11:36:04;12.37;;;8.63;;
14611;SDS011;7392;52.078;11.650;2022-12-16T11:38:54;13.60;;;8.97;;
14611;SDS011;7392;52.078;11.650;2022-12-16T11:41:40;9.53;;;7.47;;
14611;SDS011;7392;52.078;11.650;2022-12-16T11:44:28;10.33;;;7.80;;
14611;SDS011;7392;52.078;11.650;2022-12-16T11:47:19;9.90;;;8.00;;
14611;SDS011;7392;52.078;11.650;2022-12-16T11:50:12;7.70;;;5.87;;
14611;SDS011;7392;52.078;11.650;2022-12-16T11:53:02;12.67;;;8.90;;
14611;SDS011;7392;52.078;11.650;2022-12-16T11:55:51;9.60;;;7.37;;
14611;SDS011;7392;52.078;11.650;2022-12-16T11:58:43;10.50;;;7.50;;
14611;SDS011;7392;52.078;11.650;2022-12-16T12:01:31;8.73;;;6.43;;
14611;SDS011;7392;52.078;11.650;2022-12-16T12:04:21;9.23;;;6.93;;
14611;SDS011;7392;52.078;11.650;2022-12-16T12:13:40;9.93;;;6.10;;
14611;SDS011;7392;52.078;11.650;2022-12-16T12:16:34;9.37;;;6.20;;
14611;SDS011;7392;52.078;11.650;2022-12-16T12:19:31;9.53;;;6.47;;
14611;SDS011;7392;52.078;11.650;2022-12-16T12:22:26;7.20;;;5.93;;
14611;SDS011;7392;52.078;11.650;2022-12-16T12:25:20;9.00;;;6.97;;
14611;SDS011;7392;52.078;11.650;2022-12-16T12:28:19;9.23;;;7.13;;
14611;SDS011;7392;52.078;11.650;2022-12-16T12:31:15;8.40;;;6.40;;
14611;SDS011;7392;52.078;11.650;2022-12-16T12:34:13;7.97;;;6.10;;
14611;SDS011;7392;52.078;11.650;2022-12-16T12:37:07;8.27;;;6.47;;
14611;SDS011;7392;52.078;11.650;2022-12-16T12:40:02;8.97;;;7.20;;
14611;SDS011;7392;52.078;11.650;2022-12-16T12:43:00;10.23;;;7.20;;
14611;SDS011;7392;52.078;11.650;2022-12-16T12:45:54;9.13;;;6.90;;
14611;SDS011;7392;52.078;11.650;2022-12-16T12:48:48;7.20;;;5.80;;
14611;SDS011;7392;52.078;11.650;2022-12-16T12:51:43;8.27;;;6.10;;
14611;SDS011;7392;52.078;11.650;2022-12-16T12:54:39;7.53;;;6.27;;
14611;SDS011;7392;52.078;11.650;2022-12-16T12:57:31;8.60;;;6.40;;
14611;SDS011;7392;52.078;11.650;2022-12-16T13:00:20;7.47;;;5.63;;
14611;SDS011;7392;52.078;11.650;2022-12-16T13:03:12;7.50;;;5.87;;
14611;SDS011;7392;52.078;11.650;2022-12-16T13:06:03;6.93;;;5.53;;
14611;SDS011;7392;52.078;11.650;2022-12-16T13:08:54;7.03;;;5.47;;
14611;SDS011;7392;52.078;11.650;2022-12-16T13:15:05;8.53;;;6.53;;
14611;SDS011;7392;52.078;11.650;2022-12-16T13:21:03;8.57;;;6.10;;
14611;SDS011;7392;52.078;11.650;2022-12-16T13:24:18;8.37;;;6.37;;
14611;SDS011;7392;52.078;11.650;2022-12-16T13:27:09;7.53;;;6.10;;
14611;SDS011;7392;52.078;11.650;2022-12-16T13:30:00;6.90;;;5.67;;
14611;SDS011;7392;52.078;11.650;2022-12-16T13:32:52;7.10;;;5.57;;
14611;SDS011;7392;52.078;11.650;2022-12-16T13:35:51;7.60;;;6.07;;
14611;SDS011;7392;52.078;11.650;2022-12-16T13:38:43;8.87;;;6.43;;
14611;SDS011;7392;52.078;11.650;2022-12-16T13:41:49;8.03;;;6.37;;
14611;SDS011;7392;52.078;11.650;2022-12-16T13:44:54;7.60;;;5.80;;
14611;SDS011;7392;52.078;11.650;2022-12-16T13:47:57;7.57;;;5.83;;
14611;SDS011;7392;52.078;11.650;2022-12-16T13:50:44;7.83;;;6.30;;
14611;SDS011;7392;52.078;11.650;2022-12-16T13:53:33;6.70;;;5.60;;
14611;SDS011;7392;52.078;11.650;2022-12-16T13:56:24;8.30;;;6.20;;
14611;SDS011;7392;52.078;11.650;2022-12-16T13:59:17;8.07;;;6.07;;
14611;SDS011;7392;52.078;11.650;2022-12-16T14:02:20;6.20;;;4.80;;
14611;SDS011;7392;52.078;11.650;2022-12-16T14:05:16;6.90;;;5.70;;
14611;SDS011;7392;52.078;11.650;2022-12-16T14:08:04;6.90;;;5.07;;
14611;SDS011;7392;52.078;11.650;2022-12-16T14:10:58;6.57;;;5.63;;
14611;SDS011;7392;52.078;11.650;2022-12-16T14:13:48;7.77;;;5.70;;
14611;SDS011;7392;52.078;11.650;2022-12-16T14:16:42;5.90;;;4.93;;
14611;SDS011;7392;52.078;11.650;2022-12-16T14:19:32;6.30;;;4.83;;
14611;SDS011;7392;52.078;11.650;2022-12-16T14:22:30;5.97;;;4.67;;
14611;SDS011;7392;52.078;11.650;2022-12-16T14:25:36;6.20;;;4.50;;
14611;SDS011;7392;52.078;11.650;2022-12-16T14:28:27;7.37;;;5.50;;
14611;SDS011;7392;52.078;11.650;2022-12-16T14:31:17;6.70;;;5.30;;
14611;SDS011;7392;52.078;11.650;2022-12-16T14:34:10;7.77;;;5.60;;
14611;SDS011;7392;52.078;11.650;2022-12-16T14:36:58;6.37;;;5.33;;
14611;SDS011;7392;52.078;11.650;2022-12-16T14:39:49;6.80;;;5.70;;
14611;SDS011;7392;52.078;11.650;2022-12-16T14:42:38;6.73;;;5.07;;
14611;SDS011;7392;52.078;11.650;2022-12-16T14:45:28;6.67;;;5.33;;
14611;SDS011;7392;52.078;11.650;2022-12-16T14:48:23;6.37;;;4.90;;
14611;SDS011;7392;52.078;11.650;2022-12-16T14:51:25;6.07;;;5.40;;
14611;SDS011;7392;52.078;11.650;2022-12-16T14:54:16;7.40;;;5.20;;
14611;SDS011;7392;52.078;11.650;2022-12-16T14:57:11;5.83;;;4.50;;
14611;SDS011;7392;52.078;11.650;2022-12-16T15:00:12;6.37;;;5.27;;
14611;SDS011;7392;52.078;11.650;2022-12-16T15:03:01;6.47;;;5.17;;
14611;SDS011;7392;52.078;11.650;2022-12-16T15:05:52;6.00;;;4.50;;
14611;SDS011;7392;52.078;11.650;2022-12-16T15:08:40;6.23;;;4.70;;
14611;SDS011;7392;52.078;11.650;2022-12-16T15:11:33;5.10;;;4.60;;
14611;SDS011;7392;52.078;11.650;2022-12-16T15:14:21;6.07;;;4.37;;
14611;SDS011;7392;52.078;11.650;2022-12-16T15:17:18;4.63;;;4.17;;
14611;SDS011;7392;52.078;11.650;2022-12-16T15:20:13;4.80;;;4.23;;
14611;SDS011;7392;52.078;11.650;2022-12-16T15:23:00;5.67;;;4.23;;
14611;SDS011;7392;52.078;11.650;2022-12-16T15:25:49;5.33;;;4.40;;
14611;SDS011;7392;52.078;11.650;2022-12-16T15:28:40;4.40;;;3.80;;
14611;SDS011;7392;52.078;11.650;2022-12-16T15:31:30;5.93;;;4.83;;
14611;SDS011;7392;52.078;11.650;2022-12-16T15:34:24;4.63;;;3.87;;
14611;SDS011;7392;52.078;11.650;2022-12-16T15:37:17;5.33;;;4.60;;
14611;SDS011;7392;52.078;11.650;2022-12-16T15:40:14;5.00;;;4.10;;
14611;SDS011;7392;52.078;11.650;2022-12-16T15:43:04;5.43;;;4.77;;
14611;SDS011;7392;52.078;11.650;2022-12-16T15:45:49;6.93;;;4.83;;
14611;SDS011;7392;52.078;11.650;2022-12-16T15:48:35;6.80;;;5.53;;
14611;SDS011;7392;52.078;11.650;2022-12-16T15:51:21;8.30;;;6.30;;
14611;SDS011;7392;52.078;11.650;2022-12-16T15:54:15;8.63;;;7.00;;
14611;SDS011;7392;52.078;11.650;2022-12-16T16:00:17;9.80;;;6.80;;
14611;SDS011;7392;52.078;11.650;2022-12-16T16:03:14;8.40;;;6.43;;
14611;SDS011;7392;52.078;11.650;2022-12-16T16:06:03;8.57;;;6.53;;
14611;SDS011;7392;52.078;11.650;2022-12-16T16:08:49;10.33;;;7.20;;
14611;SDS011;7392;52.078;11.650;2022-12-16T16:11:36;11.63;;;8.53;;
14611;SDS011;7392;52.078;11.650;2022-12-16T16:14:22;11.60;;;8.57;;
14611;SDS011;7392;52.078;11.650;2022-12-16T16:17:11;10.17;;;7.30;;
14611;SDS011;7392;52.078;11.650;2022-12-16T16:20:05;9.40;;;7.30;;
14611;SDS011;7392;52.078;11.650;2022-12-16T16:22:53;9.77;;;7.27;;
14611;SDS011;7392;52.078;11.650;2022-12-16T16:25:38;11.10;;;7.70;;
14611;SDS011;7392;52.078;11.650;2022-12-16T16:28:30;11.93;;;8.67;;
14611;SDS011;7392;52.078;11.650;2022-12-16T16:31:15;13.03;;;9.63;;
14611;SDS011;7392;52.078;11.650;2022-12-16T16:34:01;15.47;;;11.37;;